Time;durP1;ratioP1;P1;durP2;ratioP2;P2;SDS_P1;SDS_P2;PMS_P1;PMS_P2;Temp;Humidity;BMP_temperature;BMP_pressure;BME280_temperature;BME280_humidity;BME280_pressure;Samples;Min_cycle;Max_cycle;Signal;HPM_P1;HPM_P2
2022/09/18 00:01:10;;;;;;;8.67;1.60;;;8.70;64.90;;;;;;5059265;28;46397;-66
2022/09/18 00:03:38;;;;;;;1.80;0.90;;;8.70;65.00;;;;;;5048380;28;46361;-66
2022/09/18 00:06:06;;;;;;;5.53;1.43;;;8.70;64.90;;;;;;5058630;28;46335;-66
2022/09/18 00:08:32;;;;;;;4.80;1.20;;;8.70;65.00;;;;;;5058255;28;49484;-65
2022/09/18 00:10:57;;;;;;;3.43;1.00;;;8.70;64.70;;;;;;5051883;28;46532;-65
2022/09/18 00:13:23;;;;;;;5.67;1.80;;;8.70;64.60;;;;;;5055364;28;46493;-65
2022/09/18 00:15:55;;;;;;;3.87;1.50;;;8.80;64.50;;;;;;5047891;28;46343;-65
2022/09/18 00:18:21;;;;;;;3.93;1.17;;;8.80;64.40;;;;;;5044961;28;48187;-65
2022/09/18 00:20:46;;;;;;;2.90;1.30;;;8.70;64.30;;;;;;5043305;28;46378;-65
2022/09/18 00:23:12;;;;;;;5.47;1.20;;;8.60;64.30;;;;;;5057510;28;46517;-65
2022/09/18 00:25:37;;;;;;;3.57;1.07;;;8.50;64.80;;;;;;5057413;28;46480;-65
2022/09/18 00:28:03;;;;;;;2.90;1.10;;;8.50;65.00;;;;;;5052635;28;46208;-66
2022/09/18 00:30:29;;;;;;;3.57;1.03;;;8.40;65.10;;;;;;5054585;28;46662;-64
2022/09/18 00:32:54;;;;;;;3.63;1.30;;;8.40;65.10;;;;;;5052472;28;46492;-65
2022/09/18 00:35:20;;;;;;;5.20;1.00;;;8.50;64.90;;;;;;5062253;28;45799;-67
2022/09/18 00:37:45;;;;;;;4.83;1.43;;;8.50;64.70;;;;;;5052409;28;46423;-66
2022/09/18 00:40:11;;;;;;;3.50;1.13;;;8.60;64.30;;;;;;5061789;28;46515;-66
2022/09/18 00:42:37;;;;;;;5.63;1.57;;;8.60;64.20;;;;;;5054080;28;46511;-66
2022/09/18 00:45:03;;;;;;;2.93;1.20;;;8.60;64.20;;;;;;5051520;28;46587;-65
2022/09/18 00:47:47;;;;;;;2.17;1.10;;;8.50;64.10;;;;;;5050370;28;46950;-64
2022/09/18 00:50:23;;;;;;;1.60;1.07;;;8.50;64.10;;;;;;5059406;28;46642;-65
2022/09/18 00:53:01;;;;;;;4.93;1.20;;;8.50;64.10;;;;;;5051976;28;46555;-66
2022/09/18 00:55:32;;;;;;;2.00;1.00;;;8.50;64.10;;;;;;5057518;28;46445;-65
2022/09/18 00:58:00;;;;;;;3.77;1.47;;;8.50;64.20;;;;;;5056808;28;48494;-65
2022/09/18 01:00:26;;;;;;;3.77;1.40;;;8.50;64.40;;;;;;5062639;28;46373;-65
2022/09/18 01:02:52;;;;;;;2.77;1.30;;;8.50;64.60;;;;;;5066221;28;46339;-65
2022/09/18 01:05:48;;;;;;;2.50;1.20;;;8.40;66.20;;;;;;5064696;28;45800;-65
2022/09/18 01:08:38;;;;;;;6.73;1.50;;;8.30;65.60;;;;;;5038203;28;48847;-65
2022/09/18 01:11:33;;;;;;;5.33;1.67;;;8.10;65.90;;;;;;5059191;28;46557;-65
2022/09/18 01:14:20;;;;;;;3.10;1.50;;;8.00;66.40;;;;;;5016714;28;46328;-65
2022/09/18 01:17:16;;;;;;;4.43;1.43;;;8.00;66.50;;;;;;5058197;28;46581;-65
2022/09/18 01:20:30;;;;;;;5.83;1.30;;;7.90;66.40;;;;;;5059170;28;46353;-65
2022/09/18 01:22:58;;;;;;;4.30;1.63;;;7.90;66.20;;;;;;5050411;28;46457;-66
2022/09/18 01:26:01;;;;;;;4.07;1.27;;;7.90;66.40;;;;;;5054131;28;46326;-66
2022/09/18 01:28:42;;;;;;;5.60;1.67;;;7.90;66.40;;;;;;5063219;28;46483;-66
2022/09/18 01:31:15;;;;;;;6.27;1.50;;;7.90;66.70;;;;;;5057551;28;47146;-66
2022/09/18 01:33:59;;;;;;;6.53;1.60;;;7.90;66.60;;;;;;5055769;28;46284;-66
2022/09/18 01:36:29;;;;;;;2.97;1.40;;;8.00;66.70;;;;;;5058744;28;46305;-66
2022/09/18 01:39:03;;;;;;;4.23;2.00;;;8.00;66.90;;;;;;5067303;28;46354;-65
2022/09/18 01:41:29;;;;;;;3.47;1.53;;;8.10;67.00;;;;;;5051484;27;48106;-66
2022/09/18 01:44:02;;;;;;;3.97;1.33;;;8.20;67.00;;;;;;5043688;28;46310;-65
2022/09/18 01:46:28;;;;;;;3.73;1.50;;;8.20;66.80;;;;;;5060226;28;46616;-66
2022/09/18 01:49:25;;;;;;;6.40;1.70;;;8.30;66.60;;;;;;5057057;28;46552;-66
2022/09/18 01:52:09;;;;;;;5.40;1.77;;;8.40;66.40;;;;;;5057452;28;48082;-65
2022/09/18 01:54:38;;;;;;;5.10;1.50;;;8.50;66.30;;;;;;5065006;28;46357;-65
2022/09/18 01:57:15;;;;;;;4.50;1.30;;;8.60;66.10;;;;;;5053747;28;46291;-65
2022/09/18 01:59:57;;;;;;;4.50;1.60;;;8.60;65.90;;;;;;5056046;28;46472;-65
2022/09/18 02:02:31;;;;;;;6.30;1.93;;;8.60;65.80;;;;;;5046855;28;47125;-65
2022/09/18 02:04:59;;;;;;;3.07;1.57;;;8.70;65.80;;;;;;5050207;28;46615;-66
2022/09/18 02:07:43;;;;;;;6.53;1.70;;;8.70;65.90;;;;;;5053223;28;46395;-65
2022/09/18 02:10:09;;;;;;;5.70;1.67;;;8.70;66.00;;;;;;5049946;28;46269;-65
2022/09/18 02:12:39;;;;;;;6.63;1.70;;;8.70;66.00;;;;;;5053231;28;48118;-65
2022/09/18 02:15:11;;;;;;;7.93;1.67;;;8.70;65.90;;;;;;5039980;28;46349;-65
2022/09/18 02:17:42;;;;;;;2.83;1.53;;;8.80;66.10;;;;;;5051372;28;46314;-66
2022/09/18 02:20:19;;;;;;;7.10;1.60;;;8.80;66.00;;;;;;5060018;28;46310;-66
2022/09/18 02:22:46;;;;;;;9.03;1.40;;;8.80;66.00;;;;;;5056453;28;46489;-66
2022/09/18 02:25:19;;;;;;;11.53;1.77;;;8.80;65.80;;;;;;5053938;28;46453;-66
2022/09/18 02:27:47;;;;;;;2.97;1.30;;;8.80;65.80;;;;;;5061418;28;46335;-65
2022/09/18 02:30:13;;;;;;;10.40;1.50;;;8.90;65.90;;;;;;5065347;28;46413;-65
2022/09/18 02:32:39;;;;;;;3.50;1.20;;;8.90;65.90;;;;;;5053958;28;47334;-66
2022/09/18 02:35:07;;;;;;;6.80;1.50;;;8.90;65.80;;;;;;5054305;28;46401;-65
2022/09/18 02:37:41;;;;;;;5.87;1.50;;;8.90;66.00;;;;;;5057469;28;46523;-65
2022/09/18 02:40:30;;;;;;;4.20;1.50;;;8.90;65.90;;;;;;5048948;28;46367;-65
2022/09/18 02:43:25;;;;;;;5.90;1.50;;;8.90;66.20;;;;;;5055846;28;46449;-65
2022/09/18 02:46:06;;;;;;;3.97;1.43;;;8.90;66.20;;;;;;5056047;28;46890;-65
2022/09/18 02:48:50;;;;;;;3.80;1.33;;;8.90;66.20;;;;;;5059782;28;46506;-65
2022/09/18 02:51:33;;;;;;;7.30;1.67;;;9.00;66.00;;;;;;5053178;28;46349;-64
2022/09/18 02:54:12;;;;;;;5.00;1.70;;;9.00;67.10;;;;;;5068709;28;46409;-64
2022/09/18 02:57:07;;;;;;;2.87;1.70;;;9.00;65.80;;;;;;5048377;28;46426;-65
2022/09/18 02:59:42;;;;;;;8.10;2.27;;;9.00;65.70;;;;;;5035668;28;46397;-65
2022/09/18 03:02:08;;;;;;;7.60;1.60;;;9.00;65.80;;;;;;5056182;28;46501;-65
2022/09/18 03:04:34;;;;;;;6.03;1.43;;;9.00;65.90;;;;;;5047973;28;46495;-66
2022/09/18 03:07:00;;;;;;;7.33;1.70;;;9.00;66.10;;;;;;5053143;28;45821;-65
2022/09/18 03:09:26;;;;;;;8.03;1.53;;;9.00;66.20;;;;;;5052986;28;46435;-66
2022/09/18 03:11:52;;;;;;;5.30;1.43;;;9.00;66.00;;;;;;5050882;28;46444;-67
2022/09/18 03:14:19;;;;;;;3.37;1.60;;;9.10;65.90;;;;;;5054500;28;46575;-66
2022/09/18 03:16:45;;;;;;;9.63;1.90;;;9.10;65.70;;;;;;5055400;28;46389;-66
2022/09/18 03:19:13;;;;;;;5.30;1.30;;;9.10;65.80;;;;;;5061339;28;46460;-66
2022/09/18 03:21:38;;;;;;;3.03;1.17;;;9.00;66.00;;;;;;5048530;28;46352;-67
2022/09/18 03:24:04;;;;;;;2.80;1.37;;;8.90;66.20;;;;;;5057579;28;46469;-66
2022/09/18 03:26:30;;;;;;;3.50;1.37;;;8.80;67.80;;;;;;5060050;28;46546;-65
2022/09/18 03:28:55;;;;;;;4.53;1.40;;;8.80;67.00;;;;;;5054909;28;45837;-66
2022/09/18 03:31:21;;;;;;;3.93;1.30;;;8.70;67.20;;;;;;5065863;28;45950;-65
2022/09/18 03:33:47;;;;;;;2.73;1.00;;;8.70;67.10;;;;;;5044927;28;48391;-65
2022/09/18 03:36:12;;;;;;;3.93;1.30;;;8.80;67.20;;;;;;5052959;28;46334;-65
2022/09/18 03:38:39;;;;;;;12.73;1.60;;;8.80;67.00;;;;;;5062581;28;46456;-65
2022/09/18 03:41:06;;;;;;;4.73;1.50;;;8.80;66.80;;;;;;5049689;28;46247;-65
2022/09/18 03:43:31;;;;;;;4.93;1.30;;;8.90;66.80;;;;;;5056244;28;46663;-65
2022/09/18 03:45:57;;;;;;;5.10;1.40;;;8.90;66.80;;;;;;5059807;28;45779;-65
2022/09/18 03:48:23;;;;;;;5.27;1.50;;;8.90;66.60;;;;;;5056049;28;46429;-65
2022/09/18 03:50:49;;;;;;;6.87;1.80;;;9.00;66.50;;;;;;5051462;28;45786;-65
2022/09/18 03:53:14;;;;;;;7.60;1.37;;;9.00;66.10;;;;;;5050578;28;47001;-65
2022/09/18 03:55:40;;;;;;;5.10;1.83;;;9.10;65.80;;;;;;5046216;28;46767;-65
2022/09/18 03:58:06;;;;;;;4.50;1.30;;;9.20;65.80;;;;;;5053144;28;46517;-65
2022/09/18 04:00:32;;;;;;;2.90;1.40;;;9.10;65.70;;;;;;5050932;28;46735;-66
2022/09/18 04:02:57;;;;;;;2.20;1.13;;;9.20;65.60;;;;;;5044638;28;47213;-65
2022/09/18 04:05:23;;;;;;;8.73;1.57;;;9.20;65.80;;;;;;5049709;28;46343;-66
2022/09/18 04:07:49;;;;;;;4.17;1.30;;;9.20;65.70;;;;;;5056076;28;46468;-65
2022/09/18 04:10:14;;;;;;;2.80;1.27;;;9.20;65.70;;;;;;5058388;28;46648;-65
2022/09/18 04:12:43;;;;;;;5.80;1.23;;;9.20;65.80;;;;;;5054171;28;47004;-65
2022/09/18 04:15:09;;;;;;;7.33;1.53;;;9.20;65.90;;;;;;5052407;28;46587;-66
2022/09/18 04:17:35;;;;;;;5.93;1.37;;;9.20;65.70;;;;;;5057568;28;46349;-65
2022/09/18 04:20:00;;;;;;;4.37;1.33;;;9.20;65.50;;;;;;5049343;28;46476;-65
2022/09/18 04:22:29;;;;;;;3.20;1.60;;;9.20;65.70;;;;;;5050981;28;47036;-66
2022/09/18 04:24:54;;;;;;;9.37;1.97;;;9.20;65.60;;;;;;5050810;28;46302;-66
2022/09/18 04:27:20;;;;;;;6.07;1.50;;;9.30;65.70;;;;;;5055082;28;46210;-65
2022/09/18 04:29:46;;;;;;;4.23;1.70;;;9.30;65.60;;;;;;5056465;27;46597;-65
2022/09/18 04:32:12;;;;;;;7.37;1.53;;;9.30;65.60;;;;;;5055716;28;48266;-65
2022/09/18 04:34:37;;;;;;;8.83;2.07;;;9.30;65.50;;;;;;5058744;27;46402;-65
2022/09/18 04:37:03;;;;;;;7.37;1.70;;;9.30;65.50;;;;;;5054963;28;46326;-66
2022/09/18 04:39:29;;;;;;;8.00;1.80;;;9.30;65.30;;;;;;5047327;28;45960;-66
2022/09/18 04:41:54;;;;;;;8.30;1.67;;;9.30;65.30;;;;;;5053607;28;46872;-66
2022/09/18 04:44:20;;;;;;;8.87;1.37;;;9.30;65.20;;;;;;5050308;28;45832;-66
2022/09/18 04:46:46;;;;;;;7.10;1.70;;;9.20;65.30;;;;;;5044684;28;46371;-66
2022/09/18 04:49:12;;;;;;;3.00;1.40;;;9.20;65.40;;;;;;5045977;28;45934;-64
2022/09/18 04:51:37;;;;;;;7.03;1.50;;;9.30;65.80;;;;;;5054702;28;47438;-65
2022/09/18 04:54:04;;;;;;;7.53;1.83;;;9.30;65.80;;;;;;5044928;28;46354;-65
2022/09/18 04:56:30;;;;;;;3.70;1.60;;;9.30;65.60;;;;;;5050170;28;46362;-66
2022/09/18 04:58:55;;;;;;;6.87;1.80;;;9.20;65.60;;;;;;5058901;28;46353;-67
2022/09/18 05:01:21;;;;;;;8.03;1.80;;;9.30;65.80;;;;;;5050482;28;47211;-67
2022/09/18 05:03:46;;;;;;;7.17;1.73;;;9.30;65.60;;;;;;5048477;28;45844;-66
2022/09/18 05:06:12;;;;;;;4.23;1.47;;;9.40;65.30;;;;;;5044816;28;47311;-66
2022/09/18 05:08:38;;;;;;;5.47;1.77;;;9.50;65.00;;;;;;5051378;28;46295;-66
2022/09/18 05:11:04;;;;;;;3.93;1.70;;;9.40;64.90;;;;;;5046985;28;48098;-66
2022/09/18 05:13:29;;;;;;;11.57;2.03;;;9.50;65.00;;;;;;5069544;28;46261;-66
2022/09/18 05:15:56;;;;;;;2.87;1.40;;;9.40;64.90;;;;;;5044027;28;46428;-66
2022/09/18 05:18:22;;;;;;;5.57;1.83;;;9.50;66.30;;;;;;5046736;28;46456;-66
2022/09/18 05:20:48;;;;;;;5.20;1.90;;;9.50;65.00;;;;;;5055534;28;47006;-65
2022/09/18 05:23:14;;;;;;;4.37;1.50;;;9.60;65.10;;;;;;5054918;28;46373;-66
2022/09/18 05:25:41;;;;;;;6.00;1.83;;;9.60;65.10;;;;;;5050000;28;46520;-65
2022/09/18 05:28:08;;;;;;;8.03;1.80;;;9.60;65.10;;;;;;5050011;28;46536;-65
2022/09/18 05:30:33;;;;;;;3.77;1.77;;;9.70;65.20;;;;;;5056626;28;46359;-65
2022/09/18 05:33:04;;;;;;;6.67;1.70;;;9.70;65.20;;;;;;5053141;27;46286;-65
2022/09/18 05:35:32;;;;;;;4.87;1.77;;;9.70;65.20;;;;;;5057995;28;46584;-65
2022/09/18 05:37:58;;;;;;;5.43;1.33;;;9.80;65.20;;;;;;5054889;28;46337;-66
2022/09/18 05:40:29;;;;;;;4.00;1.57;;;9.70;65.20;;;;;;5051067;28;48304;-66
2022/09/18 05:43:09;;;;;;;9.30;2.23;;;9.80;65.20;;;;;;5054009;28;46388;-66
2022/09/18 05:45:36;;;;;;;5.73;1.80;;;9.80;64.80;;;;;;5053402;28;46411;-66
2022/09/18 05:48:21;;;;;;;6.40;2.10;;;9.80;64.90;;;;;;5050415;28;46551;-63
2022/09/18 05:50:52;;;;;;;3.73;1.40;;;9.80;65.20;;;;;;5049926;28;46155;-63
2022/09/18 05:53:20;;;;;;;5.80;1.90;;;9.80;66.40;;;;;;5050653;28;46387;-65
2022/09/18 05:55:45;;;;;;;6.67;1.73;;;9.80;65.00;;;;;;5049801;28;45992;-64
2022/09/18 05:58:14;;;;;;;16.10;2.00;;;9.80;65.20;;;;;;5046467;28;46460;-64
2022/09/18 06:00:40;;;;;;;5.73;1.70;;;9.70;65.20;;;;;;5049571;28;46389;-65
2022/09/18 06:03:08;;;;;;;4.00;1.50;;;9.70;65.20;;;;;;5056935;28;46315;-62
2022/09/18 06:05:36;;;;;;;6.70;1.30;;;9.80;65.20;;;;;;5052652;28;46485;-64
2022/09/18 06:08:08;;;;;;;6.07;1.80;;;9.70;65.20;;;;;;5050924;28;46459;-62
2022/09/18 06:10:36;;;;;;;5.63;1.70;;;9.70;65.20;;;;;;5048116;28;46762;-62
2022/09/18 06:13:07;;;;;;;4.10;1.50;;;9.70;65.20;;;;;;5050047;28;46572;-63
2022/09/18 06:15:33;;;;;;;3.20;1.47;;;9.80;65.20;;;;;;5049515;28;46516;-65
2022/09/18 06:18:00;;;;;;;4.73;1.70;;;9.70;65.20;;;;;;5050014;28;46284;-62
2022/09/18 06:20:27;;;;;;;4.77;1.50;;;9.80;65.20;;;;;;5050030;28;47106;-62
2022/09/18 06:22:57;;;;;;;4.10;1.80;;;9.80;65.10;;;;;;5048516;28;46465;-64
2022/09/18 06:25:23;;;;;;;8.20;1.73;;;9.80;64.80;;;;;;5050875;28;46427;-64
2022/09/18 06:27:53;;;;;;;5.23;1.90;;;9.80;64.90;;;;;;5056737;28;46442;-64
2022/09/18 06:30:19;;;;;;;6.40;2.00;;;9.80;64.70;;;;;;5050301;28;46700;-64
2022/09/18 06:32:45;;;;;;;8.33;1.90;;;9.90;64.60;;;;;;5050796;28;46410;-64
2022/09/18 06:35:10;;;;;;;6.10;1.80;;;9.90;64.20;;;;;;5048044;28;46457;-64
2022/09/18 06:37:36;;;;;;;4.00;1.60;;;10.00;62.90;;;;;;5048388;28;46684;-64
2022/09/18 06:40:03;;;;;;;6.87;1.60;;;10.00;62.70;;;;;;5056505;28;47819;-66
2022/09/18 06:42:28;;;;;;;2.53;1.33;;;10.10;62.80;;;;;;5052493;28;46532;-64
2022/09/18 06:44:54;;;;;;;6.83;1.80;;;10.10;62.80;;;;;;5050129;28;45843;-64
2022/09/18 06:47:20;;;;;;;2.30;1.30;;;10.10;63.00;;;;;;5052858;28;46051;-64
2022/09/18 06:49:45;;;;;;;7.10;2.20;;;10.10;62.90;;;;;;5048628;28;46441;-64
2022/09/18 06:52:11;;;;;;;7.23;1.60;;;10.10;62.90;;;;;;5049568;28;46390;-64
2022/09/18 06:54:36;;;;;;;2.83;1.20;;;10.10;62.80;;;;;;5046226;28;46565;-65
2022/09/18 06:57:02;;;;;;;4.93;1.50;;;10.10;62.60;;;;;;5051049;28;46593;-64
2022/09/18 06:59:28;;;;;;;3.63;1.20;;;10.10;62.80;;;;;;5048194;28;47867;-65
2022/09/18 07:01:53;;;;;;;3.30;1.30;;;10.00;62.80;;;;;;5049153;28;46491;-64
2022/09/18 07:04:19;;;;;;;6.33;1.60;;;10.00;62.90;;;;;;5048797;28;45889;-64
2022/09/18 07:06:45;;;;;;;6.30;1.47;;;10.10;62.90;;;;;;5057714;28;46425;-64
2022/09/18 07:09:11;;;;;;;4.47;1.50;;;10.10;62.70;;;;;;5052318;28;46676;-64
2022/09/18 07:11:38;;;;;;;3.00;1.20;;;10.10;62.60;;;;;;5056992;28;46569;-65
2022/09/18 07:14:07;;;;;;;4.73;1.53;;;10.20;62.30;;;;;;5049141;28;46564;-65
2022/09/18 07:16:33;;;;;;;4.63;1.20;;;10.20;62.30;;;;;;5047659;28;46677;-65
2022/09/18 07:18:59;;;;;;;5.93;1.47;;;10.20;62.30;;;;;;5046249;28;46322;-65
2022/09/18 07:21:25;;;;;;;4.80;1.50;;;10.30;62.20;;;;;;5048652;28;46800;-65
2022/09/18 07:23:51;;;;;;;5.00;1.70;;;10.30;62.00;;;;;;5046759;28;46320;-64
2022/09/18 07:26:18;;;;;;;7.00;1.40;;;10.40;62.10;;;;;;5046749;28;46433;-65
2022/09/18 07:28:44;;;;;;;5.90;1.67;;;10.40;61.90;;;;;;5048021;28;46428;-65
2022/09/18 07:31:09;;;;;;;5.33;1.47;;;10.40;61.80;;;;;;5047282;28;46340;-65
2022/09/18 07:33:36;;;;;;;5.03;1.57;;;10.40;61.60;;;;;;5048247;28;46454;-65
2022/09/18 07:36:03;;;;;;;4.50;1.47;;;10.40;61.70;;;;;;5050174;28;46512;-65
2022/09/18 07:38:29;;;;;;;4.20;1.20;;;10.50;61.70;;;;;;5050249;28;47342;-62
2022/09/18 07:40:54;;;;;;;7.80;1.83;;;10.50;61.60;;;;;;5048203;28;45785;-65
2022/09/18 07:43:20;;;;;;;3.87;1.63;;;10.50;61.60;;;;;;5049573;28;46556;-63
2022/09/18 07:45:47;;;;;;;3.60;1.40;;;10.50;61.70;;;;;;5044705;28;46583;-63
2022/09/18 07:48:17;;;;;;;6.83;1.90;;;10.70;62.80;;;;;;5047386;28;47448;-65
2022/09/18 07:50:45;;;;;;;6.50;1.30;;;10.70;61.30;;;;;;5050811;28;46806;-65
2022/09/18 07:53:11;;;;;;;2.90;1.37;;;10.70;61.10;;;;;;5049800;28;46597;-65
2022/09/18 07:55:36;;;;;;;3.57;1.50;;;10.80;61.00;;;;;;5046227;28;46322;-64
2022/09/18 07:58:05;;;;;;;5.17;1.73;;;10.80;60.80;;;;;;5047805;28;46435;-64
2022/09/18 08:00:34;;;;;;;3.47;1.20;;;10.90;60.70;;;;;;5047572;28;46768;-65
2022/09/18 08:03:13;;;;;;;5.00;1.50;;;10.90;60.50;;;;;;5047348;28;46404;-62
2022/09/18 08:05:40;;;;;;;3.73;1.37;;;10.90;60.60;;;;;;5050819;28;46386;-65
2022/09/18 08:08:11;;;;;;;5.93;1.90;;;10.90;60.60;;;;;;5044156;28;46898;-65
2022/09/18 08:10:38;;;;;;;4.90;1.53;;;10.90;60.40;;;;;;5050135;28;46621;-65
2022/09/18 08:13:04;;;;;;;4.90;1.53;;;10.90;60.00;;;;;;5054738;28;46370;-64
2022/09/18 08:15:32;;;;;;;5.70;2.13;;;11.00;60.00;;;;;;5052627;28;46511;-65
2022/09/18 08:17:58;;;;;;;3.70;1.40;;;11.00;59.90;;;;;;5051443;28;46466;-65
2022/09/18 08:20:25;;;;;;;7.73;1.60;;;11.10;60.00;;;;;;5044187;28;45979;-64
2022/09/18 08:22:51;;;;;;;9.83;1.80;;;11.20;59.80;;;;;;5032634;28;46303;-63
2022/09/18 08:25:17;;;;;;;5.83;1.30;;;11.30;59.30;;;;;;5049603;28;46377;-65
2022/09/18 08:27:43;;;;;;;8.10;1.50;;;11.30;58.60;;;;;;5050384;28;46854;-65
2022/09/18 08:30:12;;;;;;;10.30;1.83;;;11.40;58.60;;;;;;5049593;28;46678;-66
2022/09/18 08:32:38;;;;;;;4.73;2.03;;;11.50;58.10;;;;;;5068071;28;46442;-64
2022/09/18 08:35:05;;;;;;;8.10;2.13;;;11.60;57.70;;;;;;5063971;28;46492;-66
2022/09/18 08:37:32;;;;;;;2.43;1.33;;;11.70;57.00;;;;;;5063256;28;45982;-64
2022/09/18 08:39:58;;;;;;;2.90;1.30;;;11.80;56.80;;;;;;5059496;28;46534;-64
2022/09/18 08:42:38;;;;;;;4.10;1.27;;;12.00;56.80;;;;;;5066585;28;46381;-64
2022/09/18 08:45:21;;;;;;;6.43;1.60;;;11.90;55.80;;;;;;5066428;28;46407;-66
2022/09/18 08:48:03;;;;;;;2.70;1.20;;;12.00;56.10;;;;;;5062730;28;46728;-64
2022/09/18 08:50:35;;;;;;;4.40;1.40;;;11.90;56.10;;;;;;5062120;28;46731;-66
2022/09/18 08:53:25;;;;;;;3.40;1.10;;;11.90;56.20;;;;;;5066461;28;46639;-63
2022/09/18 08:55:51;;;;;;;6.17;1.60;;;11.90;56.10;;;;;;5064722;28;46442;-63
2022/09/18 08:58:29;;;;;;;5.70;1.40;;;12.00;56.10;;;;;;5061944;28;48621;-66
2022/09/18 09:01:01;;;;;;;6.80;1.53;;;12.10;55.80;;;;;;5061854;28;46524;-65
2022/09/18 09:03:30;;;;;;;6.10;2.20;;;12.10;55.20;;;;;;5050135;28;46463;-65
2022/09/18 09:06:35;;;;;;;3.40;1.20;;;12.10;54.90;;;;;;5044391;28;46441;-65
2022/09/18 09:09:21;;;;;;;2.60;1.10;;;12.20;55.00;;;;;;5054112;28;47019;-65
2022/09/18 09:12:12;;;;;;;3.50;1.20;;;12.40;54.30;;;;;;5053334;28;46654;-65
2022/09/18 09:14:37;;;;;;;4.90;1.50;;;12.60;54.00;;;;;;5057453;28;45826;-66
2022/09/18 09:17:36;;;;;;;5.73;1.30;;;12.70;54.10;;;;;;5051974;28;46602;-65
2022/09/18 09:20:21;;;;;;;10.00;2.10;;;12.70;54.10;;;;;;5050565;28;47300;-65
2022/09/18 09:22:47;;;;;;;8.77;1.43;;;12.50;53.20;;;;;;5053147;28;46421;-65
2022/09/18 09:25:12;;;;;;;3.63;1.57;;;12.60;53.10;;;;;;5051972;28;46402;-65
2022/09/18 09:27:42;;;;;;;10.30;1.80;;;12.60;52.70;;;;;;5054358;28;46354;-65
2022/09/18 09:30:15;;;;;;;4.43;1.53;;;12.50;52.40;;;;;;5057484;28;46993;-65
2022/09/18 09:32:44;;;;;;;5.53;1.27;;;12.40;52.20;;;;;;5060921;28;46307;-65
2022/09/18 09:35:29;;;;;;;2.60;1.10;;;12.50;51.90;;;;;;5066879;28;46374;-65
2022/09/18 09:37:58;;;;;;;8.60;1.40;;;12.40;51.50;;;;;;5048520;28;46479;-64
2022/09/18 09:40:34;;;;;;;3.03;1.07;;;12.60;51.50;;;;;;5048369;28;47116;-65
2022/09/18 09:43:05;;;;;;;7.60;1.97;;;12.50;52.10;;;;;;5057860;28;46228;-65
2022/09/18 09:45:49;;;;;;;3.23;1.30;;;12.50;50.60;;;;;;5056006;28;45875;-65
2022/09/18 09:48:45;;;;;;;6.20;1.40;;;12.60;50.30;;;;;;5046348;28;46500;-65
2022/09/18 09:51:23;;;;;;;5.90;1.37;;;12.80;49.80;;;;;;5060731;28;46467;-65
2022/09/18 09:53:54;;;;;;;3.80;1.20;;;13.20;49.20;;;;;;5056149;28;46407;-65
2022/09/18 09:56:44;;;;;;;2.57;1.17;;;13.40;48.70;;;;;;5054174;28;46334;-65
2022/09/18 09:59:46;;;;;;;5.33;1.50;;;13.50;48.30;;;;;;5058287;28;46253;-65
2022/09/18 10:02:30;;;;;;;7.70;1.50;;;13.60;47.20;;;;;;5064623;28;46650;-68
2022/09/18 10:05:15;;;;;;;3.50;1.37;;;13.60;47.40;;;;;;5054492;28;46536;-65
2022/09/18 10:07:48;;;;;;;3.03;1.30;;;13.30;47.20;;;;;;5064037;28;46394;-65
2022/09/18 10:10:46;;;;;;;10.30;3.57;;;13.40;47.80;;;;;;5065536;28;45890;-66
2022/09/18 10:13:25;;;;;;;8.13;2.57;;;13.30;47.80;;;;;;5069432;28;46526;-67
2022/09/18 10:16:00;;;;;;;7.33;2.27;;;13.40;47.90;;;;;;5068617;28;45755;-67
2022/09/18 10:18:33;;;;;;;4.53;1.50;;;13.20;47.80;;;;;;5064168;28;46411;-66
2022/09/18 10:21:15;;;;;;;5.03;1.37;;;12.90;48.00;;;;;;5063385;28;46350;-66
2022/09/18 10:23:43;;;;;;;5.23;1.13;;;12.70;48.20;;;;;;5066785;28;47475;-67
2022/09/18 10:26:20;;;;;;;2.70;1.10;;;12.60;48.60;;;;;;5063870;28;46534;-66
2022/09/18 10:28:46;;;;;;;4.70;1.67;;;12.60;49.10;;;;;;5062640;28;46599;-65
2022/09/18 10:31:13;;;;;;;7.30;1.50;;;12.50;48.90;;;;;;5056196;28;46495;-67
2022/09/18 10:33:42;;;;;;;2.20;1.27;;;12.40;49.10;;;;;;5054403;28;48535;-65
2022/09/18 10:36:08;;;;;;;3.33;1.00;;;12.30;49.40;;;;;;5049932;28;46350;-65
2022/09/18 10:38:36;;;;;;;4.60;1.50;;;12.30;49.60;;;;;;5059125;28;46475;-66
2022/09/18 10:41:10;;;;;;;2.00;1.00;;;12.30;49.40;;;;;;5053162;28;46490;-66
2022/09/18 10:44:19;;;;;;;2.23;1.00;;;12.40;49.30;;;;;;5049791;28;46398;-66
2022/09/18 10:47:07;;;;;;;3.00;1.20;;;12.70;49.00;;;;;;5046125;28;46576;-66
2022/09/18 10:50:07;;;;;;;3.20;1.00;;;13.10;48.30;;;;;;5046962;28;46678;-66
2022/09/18 10:52:47;;;;;;;4.03;1.10;;;13.40;47.80;;;;;;5048131;28;46969;-66
2022/09/18 10:55:13;;;;;;;3.87;1.20;;;13.80;47.70;;;;;;5049025;28;46925;-66
2022/09/18 10:58:03;;;;;;;6.60;1.40;;;13.70;45.80;;;;;;5052903;28;45879;-66
2022/09/18 11:00:31;;;;;;;5.97;1.80;;;13.60;46.30;;;;;;5053170;28;46414;-63
2022/09/18 11:03:30;;;;;;;3.53;1.80;;;13.70;46.60;;;;;;5051533;28;46268;-67
2022/09/18 11:06:00;;;;;;;2.30;1.10;;;13.80;46.60;;;;;;5050429;28;47077;-66
2022/09/18 11:08:36;;;;;;;2.97;1.17;;;13.70;46.50;;;;;;5054728;28;46815;-66
2022/09/18 11:11:05;;;;;;;5.10;1.07;;;13.60;47.00;;;;;;5048984;28;46293;-67
2022/09/18 11:13:33;;;;;;;4.77;1.30;;;13.60;47.30;;;;;;5050444;28;46009;-68
2022/09/18 11:16:01;;;;;;;5.40;1.33;;;13.40;46.90;;;;;;5046662;28;46631;-67
2022/09/18 11:18:30;;;;;;;4.27;1.40;;;13.40;47.30;;;;;;5052803;28;46755;-67
2022/09/18 11:20:59;;;;;;;5.03;1.30;;;13.40;47.30;;;;;;5048986;28;46737;-67
2022/09/18 11:23:30;;;;;;;3.40;1.20;;;13.30;47.50;;;;;;5049373;28;45833;-66
2022/09/18 11:26:19;;;;;;;2.90;1.10;;;13.40;47.40;;;;;;5050178;28;46526;-66
2022/09/18 11:29:01;;;;;;;2.13;1.00;;;13.50;47.10;;;;;;5045081;28;46717;-66
2022/09/18 11:31:44;;;;;;;4.23;1.20;;;13.50;47.20;;;;;;5052107;28;46426;-66
2022/09/18 11:34:24;;;;;;;6.80;1.70;;;13.30;47.80;;;;;;5050401;28;46409;-66
2022/09/18 11:36:53;;;;;;;3.30;1.30;;;13.40;47.70;;;;;;5046133;28;49120;-65
2022/09/18 11:39:24;;;;;;;8.47;1.67;;;13.50;47.60;;;;;;5052830;28;46795;-66
2022/09/18 11:41:51;;;;;;;5.60;1.17;;;13.60;47.70;;;;;;5048500;28;46561;-66
2022/09/18 11:44:30;;;;;;;3.93;1.70;;;13.50;47.80;;;;;;5047454;28;46568;-65
2022/09/18 11:47:10;;;;;;;4.43;1.43;;;13.30;50.00;;;;;;5050333;28;46421;-66
2022/09/18 11:49:43;;;;;;;5.90;1.70;;;13.20;50.00;;;;;;5043459;28;46544;-66
2022/09/18 11:52:24;;;;;;;3.50;1.30;;;13.40;49.70;;;;;;5055526;28;46456;-66
2022/09/18 11:55:08;;;;;;;2.70;1.30;;;13.40;50.00;;;;;;5052676;28;46450;-66
2022/09/18 11:57:38;;;;;;;3.60;1.27;;;13.40;50.20;;;;;;5056211;28;46785;-64
2022/09/18 12:00:23;;;;;;;5.20;1.57;;;13.50;50.30;;;;;;5052753;28;46525;-65
2022/09/18 12:03:07;;;;;;;2.60;1.07;;;13.70;49.60;;;;;;5048467;28;46484;-66
2022/09/18 12:05:38;;;;;;;4.13;1.53;;;13.90;49.30;;;;;;5049100;28;45898;-64
2022/09/18 12:08:16;;;;;;;10.40;1.10;;;13.90;49.30;;;;;;5049602;28;48008;-66
2022/09/18 12:10:56;;;;;;;5.47;1.43;;;13.70;49.60;;;;;;5049771;28;47133;-66
2022/09/18 12:13:52;;;;;;;5.90;1.30;;;13.60;50.00;;;;;;5050383;28;46552;-66
2022/09/18 12:16:40;;;;;;;5.17;1.10;;;13.50;49.60;;;;;;5048121;28;46370;-65
2022/09/18 12:19:38;;;;;;;4.13;1.90;;;13.60;49.40;;;;;;5043910;28;46474;-65
2022/09/18 12:22:22;;;;;;;5.40;1.30;;;14.00;48.70;;;;;;5055843;28;46547;-66
2022/09/18 12:24:49;;;;;;;4.90;1.20;;;14.20;48.30;;;;;;5048905;28;46290;-65
2022/09/18 12:27:46;;;;;;;6.90;1.17;;;14.00;47.90;;;;;;5042940;28;46275;-65
2022/09/18 12:30:17;;;;;;;5.47;1.30;;;14.00;48.30;;;;;;5054803;28;47202;-66
2022/09/18 12:32:55;;;;;;;2.30;1.20;;;14.30;49.40;;;;;;5048070;28;46442;-72
2022/09/18 12:35:47;;;;;;;4.03;1.17;;;14.10;48.30;;;;;;5046269;28;46488;-66
2022/09/18 12:38:46;;;;;;;3.30;1.20;;;14.30;48.70;;;;;;5048501;28;46539;-66
2022/09/18 12:41:21;;;;;;;3.50;1.20;;;14.40;48.10;;;;;;5046665;28;47223;-67
2022/09/18 12:43:46;;;;;;;4.43;1.23;;;14.50;48.00;;;;;;5045587;28;46581;-69
2022/09/18 12:46:50;;;;;;;2.10;1.10;;;14.80;47.70;;;;;;5056401;28;46318;-66
2022/09/18 12:49:28;;;;;;;3.03;1.40;;;14.90;47.20;;;;;;5059180;28;46480;-66
2022/09/18 12:52:25;;;;;;;4.30;1.20;;;14.80;46.20;;;;;;5052386;28;47489;-65
2022/09/18 12:55:18;;;;;;;5.13;1.33;;;14.50;46.40;;;;;;5062092;28;46475;-67
2022/09/18 12:58:05;;;;;;;3.70;1.20;;;14.50;47.20;;;;;;5058739;28;46227;-66
2022/09/18 13:00:30;;;;;;;5.73;1.30;;;14.40;46.70;;;;;;5036891;28;46734;-66
2022/09/18 13:03:15;;;;;;;3.80;1.20;;;14.40;46.00;;;;;;5054704;28;46410;-66
2022/09/18 13:06:00;;;;;;;3.87;1.10;;;14.20;46.30;;;;;;5051922;28;46422;-67
2022/09/18 13:08:30;;;;;;;3.20;1.03;;;14.40;46.10;;;;;;5055084;28;46630;-66
2022/09/18 13:11:02;;;;;;;7.10;1.37;;;14.40;45.80;;;;;;5053879;28;46497;-67
2022/09/18 13:13:28;;;;;;;4.53;1.73;;;14.10;44.90;;;;;;5057752;28;47450;-66
2022/09/18 13:16:03;;;;;;;3.50;1.50;;;14.20;45.50;;;;;;5055381;28;46453;-66
2022/09/18 13:18:39;;;;;;;2.90;1.20;;;14.20;45.00;;;;;;5062015;28;46597;-65